sensor_id;sensor_type;location;lat;lon;timestamp;P1;durP1;ratioP1;P2;durP2;ratioP2
3036;SDS011;1528;52.550;13.408;2023-03-03T00:01:17;28.67;;;25.87;;
3036;SDS011;1528;52.550;13.408;2023-03-03T00:04:03;39.07;;;31.53;;
3036;SDS011;1528;52.550;13.408;2023-03-03T00:06:49;40.87;;;36.03;;
3036;SDS011;1528;52.550;13.408;2023-03-03T00:09:35;30.80;;;27.60;;
3036;SDS011;1528;52.550;13.408;2023-03-03T00:12:23;24.27;;;22.23;;
3036;SDS011;1528;52.550;13.408;2023-03-03T00:15:14;37.77;;;32.07;;
3036;SDS011;1528;52.550;13.408;2023-03-03T00:18:01;47.60;;;36.60;;
3036;SDS011;1528;52.550;13.408;2023-03-03T00:21:01;49.50;;;37.70;;
3036;SDS011;1528;52.550;13.408;2023-03-03T00:23:47;46.07;;;34.80;;
3036;SDS011;1528;52.550;13.408;2023-03-03T00:26:34;24.90;;;22.70;;
3036;SDS011;1528;52.550;13.408;2023-03-03T00:29:29;26.80;;;24.67;;
3036;SDS011;1528;52.550;13.408;2023-03-03T00:32:23;23.13;;;21.23;;
3036;SDS011;1528;52.550;13.408;2023-03-03T00:35:18;28.00;;;25.63;;
3036;SDS011;1528;52.550;13.408;2023-03-03T00:38:09;39.17;;;32.40;;
3036;SDS011;1528;52.550;13.408;2023-03-03T00:40:58;27.40;;;24.70;;
3036;SDS011;1528;52.550;13.408;2023-03-03T00:43:44;47.33;;;41.37;;
3036;SDS011;1528;52.550;13.408;2023-03-03T00:46:30;82.80;;;60.20;;
3036;SDS011;1528;52.550;13.408;2023-03-03T00:49:19;42.60;;;37.40;;
3036;SDS011;1528;52.550;13.408;2023-03-03T00:52:10;36.77;;;33.17;;
3036;SDS011;1528;52.550;13.408;2023-03-03T00:55:00;58.90;;;45.20;;
3036;SDS011;1528;52.550;13.408;2023-03-03T00:57:46;65.20;;;45.80;;
3036;SDS011;1528;52.550;13.408;2023-03-03T01:00:32;37.20;;;31.73;;
3036;SDS011;1528;52.550;13.408;2023-03-03T01:03:19;29.77;;;26.87;;
3036;SDS011;1528;52.550;13.408;2023-03-03T01:06:08;28.33;;;26.07;;
3036;SDS011;1528;52.550;13.408;2023-03-03T01:08:55;25.60;;;23.43;;
3036;SDS011;1528;52.550;13.408;2023-03-03T01:11:40;27.90;;;25.60;;
3036;SDS011;1528;52.550;13.408;2023-03-03T01:14:26;25.30;;;23.00;;
3036;SDS011;1528;52.550;13.408;2023-03-03T01:17:12;27.37;;;25.07;;
3036;SDS011;1528;52.550;13.408;2023-03-03T01:19:57;24.70;;;22.20;;
3036;SDS011;1528;52.550;13.408;2023-03-03T01:22:44;25.93;;;23.47;;
3036;SDS011;1528;52.550;13.408;2023-03-03T01:25:30;23.57;;;21.47;;
3036;SDS011;1528;52.550;13.408;2023-03-03T01:28:16;25.70;;;23.20;;
3036;SDS011;1528;52.550;13.408;2023-03-03T01:31:02;26.23;;;23.10;;
3036;SDS011;1528;52.550;13.408;2023-03-03T01:33:48;27.73;;;25.23;;
3036;SDS011;1528;52.550;13.408;2023-03-03T01:36:34;24.63;;;22.23;;
3036;SDS011;1528;52.550;13.408;2023-03-03T01:39:22;25.60;;;23.40;;
3036;SDS011;1528;52.550;13.408;2023-03-03T01:42:07;27.37;;;24.93;;
3036;SDS011;1528;52.550;13.408;2023-03-03T01:45:08;26.87;;;24.33;;
3036;SDS011;1528;52.550;13.408;2023-03-03T01:48:00;28.30;;;25.60;;
3036;SDS011;1528;52.550;13.408;2023-03-03T01:50:50;27.63;;;25.30;;
3036;SDS011;1528;52.550;13.408;2023-03-03T01:53:42;27.60;;;25.10;;
3036;SDS011;1528;52.550;13.408;2023-03-03T01:56:31;28.80;;;26.30;;
3036;SDS011;1528;52.550;13.408;2023-03-03T01:59:17;25.80;;;23.50;;
3036;SDS011;1528;52.550;13.408;2023-03-03T02:02:06;27.43;;;25.03;;
3036;SDS011;1528;52.550;13.408;2023-03-03T02:04:52;26.43;;;24.10;;
3036;SDS011;1528;52.550;13.408;2023-03-03T02:07:38;27.90;;;25.70;;
3036;SDS011;1528;52.550;13.408;2023-03-03T02:10:24;28.73;;;26.07;;
3036;SDS011;1528;52.550;13.408;2023-03-03T02:13:12;28.33;;;26.07;;
3036;SDS011;1528;52.550;13.408;2023-03-03T02:15:58;26.33;;;23.73;;
3036;SDS011;1528;52.550;13.408;2023-03-03T02:18:44;28.47;;;25.77;;
3036;SDS011;1528;52.550;13.408;2023-03-03T02:21:30;29.17;;;26.23;;
3036;SDS011;1528;52.550;13.408;2023-03-03T02:24:17;28.83;;;26.07;;
3036;SDS011;1528;52.550;13.408;2023-03-03T02:27:11;29.13;;;26.70;;
3036;SDS011;1528;52.550;13.408;2023-03-03T02:29:57;30.70;;;27.80;;
3036;SDS011;1528;52.550;13.408;2023-03-03T02:32:51;27.27;;;25.00;;
3036;SDS011;1528;52.550;13.408;2023-03-03T02:35:38;28.23;;;25.60;;
3036;SDS011;1528;52.550;13.408;2023-03-03T02:38:25;26.23;;;23.73;;
3036;SDS011;1528;52.550;13.408;2023-03-03T02:41:15;27.13;;;24.73;;
3036;SDS011;1528;52.550;13.408;2023-03-03T02:44:11;26.90;;;24.47;;
3036;SDS011;1528;52.550;13.408;2023-03-03T02:46:59;26.70;;;24.20;;
3036;SDS011;1528;52.550;13.408;2023-03-03T02:49:44;25.93;;;23.53;;
3036;SDS011;1528;52.550;13.408;2023-03-03T02:52:30;26.27;;;23.70;;
3036;SDS011;1528;52.550;13.408;2023-03-03T02:55:16;29.40;;;26.80;;
3036;SDS011;1528;52.550;13.408;2023-03-03T02:58:01;23.90;;;21.90;;
3036;SDS011;1528;52.550;13.408;2023-03-03T03:00:48;28.00;;;25.50;;
3036;SDS011;1528;52.550;13.408;2023-03-03T03:03:34;25.07;;;22.77;;
3036;SDS011;1528;52.550;13.408;2023-03-03T03:06:20;29.63;;;25.47;;
3036;SDS011;1528;52.550;13.408;2023-03-03T03:09:06;25.47;;;23.07;;
3036;SDS011;1528;52.550;13.408;2023-03-03T03:11:53;26.13;;;23.53;;
3036;SDS011;1528;52.550;13.408;2023-03-03T03:14:39;25.10;;;22.80;;
3036;SDS011;1528;52.550;13.408;2023-03-03T03:17:26;27.93;;;25.50;;
3036;SDS011;1528;52.550;13.408;2023-03-03T03:20:12;24.30;;;22.07;;
3036;SDS011;1528;52.550;13.408;2023-03-03T03:22:58;26.93;;;24.40;;
3036;SDS011;1528;52.550;13.408;2023-03-03T03:25:43;31.17;;;27.33;;
3036;SDS011;1528;52.550;13.408;2023-03-03T03:28:29;28.43;;;25.67;;
3036;SDS011;1528;52.550;13.408;2023-03-03T03:31:15;25.57;;;23.27;;
3036;SDS011;1528;52.550;13.408;2023-03-03T03:34:03;26.40;;;24.10;;
3036;SDS011;1528;52.550;13.408;2023-03-03T03:36:48;27.47;;;24.97;;
3036;SDS011;1528;52.550;13.408;2023-03-03T03:39:34;27.50;;;24.90;;
3036;SDS011;1528;52.550;13.408;2023-03-03T03:42:20;24.90;;;22.57;;
3036;SDS011;1528;52.550;13.408;2023-03-03T03:45:06;25.83;;;23.33;;
3036;SDS011;1528;52.550;13.408;2023-03-03T03:47:52;25.33;;;22.90;;
3036;SDS011;1528;52.550;13.408;2023-03-03T03:50:39;32.00;;;24.57;;
3036;SDS011;1528;52.550;13.408;2023-03-03T03:53:25;24.87;;;22.30;;
3036;SDS011;1528;52.550;13.408;2023-03-03T03:56:10;24.17;;;21.67;;
3036;SDS011;1528;52.550;13.408;2023-03-03T03:58:56;24.93;;;22.43;;
3036;SDS011;1528;52.550;13.408;2023-03-03T04:01:43;28.27;;;25.67;;
3036;SDS011;1528;52.550;13.408;2023-03-03T04:04:29;22.13;;;20.23;;
3036;SDS011;1528;52.550;13.408;2023-03-03T04:07:16;25.53;;;22.70;;
3036;SDS011;1528;52.550;13.408;2023-03-03T04:10:01;26.83;;;24.13;;
3036;SDS011;1528;52.550;13.408;2023-03-03T04:12:47;28.27;;;25.33;;
3036;SDS011;1528;52.550;13.408;2023-03-03T04:15:33;33.93;;;24.70;;
3036;SDS011;1528;52.550;13.408;2023-03-03T04:18:19;23.77;;;21.57;;
3036;SDS011;1528;52.550;13.408;2023-03-03T04:21:04;25.87;;;23.37;;
3036;SDS011;1528;52.550;13.408;2023-03-03T04:23:52;23.90;;;21.70;;
3036;SDS011;1528;52.550;13.408;2023-03-03T04:26:37;23.30;;;21.10;;
3036;SDS011;1528;52.550;13.408;2023-03-03T04:29:23;24.60;;;22.20;;
3036;SDS011;1528;52.550;13.408;2023-03-03T04:32:09;21.03;;;19.13;;
3036;SDS011;1528;52.550;13.408;2023-03-03T04:34:54;24.30;;;21.90;;
3036;SDS011;1528;52.550;13.408;2023-03-03T04:37:40;24.90;;;22.70;;
3036;SDS011;1528;52.550;13.408;2023-03-03T04:40:27;26.90;;;22.77;;
3036;SDS011;1528;52.550;13.408;2023-03-03T04:43:13;25.63;;;22.63;;
3036;SDS011;1528;52.550;13.408;2023-03-03T04:45:59;47.97;;;23.50;;
3036;SDS011;1528;52.550;13.408;2023-03-03T04:48:45;28.97;;;22.30;;
3036;SDS011;1528;52.550;13.408;2023-03-03T04:51:30;25.20;;;21.90;;
3036;SDS011;1528;52.550;13.408;2023-03-03T04:54:16;37.37;;;23.20;;
3036;SDS011;1528;52.550;13.408;2023-03-03T04:57:03;40.93;;;22.67;;
3036;SDS011;1528;52.550;13.408;2023-03-03T04:59:52;31.53;;;21.53;;
3036;SDS011;1528;52.550;13.408;2023-03-03T05:02:37;22.37;;;20.27;;
3036;SDS011;1528;52.550;13.408;2023-03-03T05:05:23;30.60;;;20.80;;
3036;SDS011;1528;52.550;13.408;2023-03-03T05:08:08;22.57;;;20.27;;
3036;SDS011;1528;52.550;13.408;2023-03-03T05:10:54;32.83;;;21.40;;
3036;SDS011;1528;52.550;13.408;2023-03-03T05:13:44;28.00;;;23.10;;
3036;SDS011;1528;52.550;13.408;2023-03-03T05:16:29;28.77;;;25.53;;
3036;SDS011;1528;52.550;13.408;2023-03-03T05:19:15;23.33;;;21.23;;
3036;SDS011;1528;52.550;13.408;2023-03-03T05:22:00;22.07;;;19.97;;
3036;SDS011;1528;52.550;13.408;2023-03-03T05:24:46;25.47;;;22.20;;
3036;SDS011;1528;52.550;13.408;2023-03-03T05:27:32;25.77;;;20.80;;
3036;SDS011;1528;52.550;13.408;2023-03-03T05:30:19;23.27;;;21.07;;
3036;SDS011;1528;52.550;13.408;2023-03-03T05:33:05;35.73;;;22.97;;
3036;SDS011;1528;52.550;13.408;2023-03-03T05:35:52;24.17;;;20.90;;
3036;SDS011;1528;52.550;13.408;2023-03-03T05:38:39;27.00;;;22.70;;
3036;SDS011;1528;52.550;13.408;2023-03-03T05:41:24;27.53;;;24.60;;
3036;SDS011;1528;52.550;13.408;2023-03-03T05:44:10;27.47;;;21.80;;
3036;SDS011;1528;52.550;13.408;2023-03-03T05:46:57;24.20;;;21.70;;
3036;SDS011;1528;52.550;13.408;2023-03-03T05:49:42;24.03;;;21.93;;
3036;SDS011;1528;52.550;13.408;2023-03-03T05:52:28;23.57;;;21.17;;
3036;SDS011;1528;52.550;13.408;2023-03-03T05:55:13;25.43;;;23.03;;
3036;SDS011;1528;52.550;13.408;2023-03-03T05:57:59;22.10;;;19.83;;
3036;SDS011;1528;52.550;13.408;2023-03-03T06:00:45;20.63;;;18.63;;
3036;SDS011;1528;52.550;13.408;2023-03-03T06:03:32;22.87;;;20.73;;
3036;SDS011;1528;52.550;13.408;2023-03-03T06:06:18;21.87;;;19.83;;
3036;SDS011;1528;52.550;13.408;2023-03-03T06:09:04;22.00;;;19.80;;
3036;SDS011;1528;52.550;13.408;2023-03-03T06:11:50;21.17;;;19.17;;
3036;SDS011;1528;52.550;13.408;2023-03-03T06:14:36;20.83;;;18.80;;
3036;SDS011;1528;52.550;13.408;2023-03-03T06:17:25;22.80;;;20.03;;
3036;SDS011;1528;52.550;13.408;2023-03-03T06:20:12;21.37;;;19.37;;
3036;SDS011;1528;52.550;13.408;2023-03-03T06:22:58;20.17;;;18.07;;
3036;SDS011;1528;52.550;13.408;2023-03-03T06:25:43;22.10;;;17.53;;
3036;SDS011;1528;52.550;13.408;2023-03-03T06:28:29;17.97;;;16.33;;
3036;SDS011;1528;52.550;13.408;2023-03-03T06:31:15;18.40;;;16.67;;
3036;SDS011;1528;52.550;13.408;2023-03-03T06:34:01;22.10;;;20.10;;
3036;SDS011;1528;52.550;13.408;2023-03-03T06:36:48;21.43;;;19.13;;
3036;SDS011;1528;52.550;13.408;2023-03-03T06:39:33;19.03;;;17.40;;
3036;SDS011;1528;52.550;13.408;2023-03-03T06:42:19;22.60;;;19.67;;
3036;SDS011;1528;52.550;13.408;2023-03-03T06:45:07;22.67;;;16.80;;
3036;SDS011;1528;52.550;13.408;2023-03-03T06:47:53;21.00;;;18.90;;
3036;SDS011;1528;52.550;13.408;2023-03-03T06:50:38;20.50;;;18.63;;
3036;SDS011;1528;52.550;13.408;2023-03-03T06:53:26;21.33;;;19.00;;
3036;SDS011;1528;52.550;13.408;2023-03-03T06:56:18;20.93;;;19.00;;
3036;SDS011;1528;52.550;13.408;2023-03-03T06:59:05;22.63;;;20.93;;
3036;SDS011;1528;52.550;13.408;2023-03-03T07:01:56;24.50;;;22.40;;
3036;SDS011;1528;52.550;13.408;2023-03-03T07:04:41;28.77;;;25.90;;
3036;SDS011;1528;52.550;13.408;2023-03-03T07:07:28;44.57;;;22.17;;
3036;SDS011;1528;52.550;13.408;2023-03-03T07:10:17;30.83;;;27.90;;
3036;SDS011;1528;52.550;13.408;2023-03-03T07:13:15;26.57;;;24.27;;
3036;SDS011;1528;52.550;13.408;2023-03-03T07:16:04;28.27;;;25.20;;
3036;SDS011;1528;52.550;13.408;2023-03-03T07:18:56;31.63;;;28.27;;
3036;SDS011;1528;52.550;13.408;2023-03-03T07:21:44;26.73;;;24.23;;
3036;SDS011;1528;52.550;13.408;2023-03-03T07:24:29;26.10;;;23.63;;
3036;SDS011;1528;52.550;13.408;2023-03-03T07:27:18;25.20;;;22.83;;
3036;SDS011;1528;52.550;13.408;2023-03-03T07:30:21;27.50;;;24.63;;
3036;SDS011;1528;52.550;13.408;2023-03-03T07:33:13;38.60;;;27.57;;
3036;SDS011;1528;52.550;13.408;2023-03-03T07:36:17;53.27;;;26.40;;
3036;SDS011;1528;52.550;13.408;2023-03-03T07:39:16;25.67;;;23.20;;
3036;SDS011;1528;52.550;13.408;2023-03-03T07:42:14;29.37;;;22.13;;
3036;SDS011;1528;52.550;13.408;2023-03-03T07:45:19;30.63;;;20.07;;
3036;SDS011;1528;52.550;13.408;2023-03-03T07:48:13;26.20;;;23.70;;
3036;SDS011;1528;52.550;13.408;2023-03-03T07:51:10;25.40;;;22.73;;
3036;SDS011;1528;52.550;13.408;2023-03-03T07:54:00;20.47;;;18.73;;
3036;SDS011;1528;52.550;13.408;2023-03-03T07:57:06;22.27;;;20.10;;
3036;SDS011;1528;52.550;13.408;2023-03-03T08:00:00;21.17;;;19.57;;
3036;SDS011;1528;52.550;13.408;2023-03-03T08:03:08;20.20;;;18.57;;
3036;SDS011;1528;52.550;13.408;2023-03-03T08:05:56;23.47;;;18.07;;
3036;SDS011;1528;52.550;13.408;2023-03-03T08:08:42;21.70;;;19.20;;
3036;SDS011;1528;52.550;13.408;2023-03-03T08:11:30;20.23;;;18.30;;
3036;SDS011;1528;52.550;13.408;2023-03-03T08:14:16;20.03;;;17.83;;
3036;SDS011;1528;52.550;13.408;2023-03-03T08:17:13;22.73;;;20.93;;
3036;SDS011;1528;52.550;13.408;2023-03-03T08:20:09;21.80;;;19.70;;
3036;SDS011;1528;52.550;13.408;2023-03-03T08:23:34;21.63;;;19.53;;
3036;SDS011;1528;52.550;13.408;2023-03-03T08:26:21;21.70;;;19.90;;
3036;SDS011;1528;52.550;13.408;2023-03-03T08:29:08;20.70;;;18.70;;
3036;SDS011;1528;52.550;13.408;2023-03-03T08:31:54;19.67;;;17.77;;
3036;SDS011;1528;52.550;13.408;2023-03-03T08:34:41;21.87;;;19.97;;
3036;SDS011;1528;52.550;13.408;2023-03-03T08:37:28;22.13;;;19.87;;
3036;SDS011;1528;52.550;13.408;2023-03-03T08:40:13;19.53;;;18.20;;
3036;SDS011;1528;52.550;13.408;2023-03-03T08:42:59;19.70;;;17.90;;
3036;SDS011;1528;52.550;13.408;2023-03-03T08:45:45;18.60;;;16.90;;
3036;SDS011;1528;52.550;13.408;2023-03-03T08:48:32;19.00;;;17.23;;
3036;SDS011;1528;52.550;13.408;2023-03-03T08:51:19;19.63;;;17.93;;
3036;SDS011;1528;52.550;13.408;2023-03-03T08:54:05;18.57;;;16.80;;
3036;SDS011;1528;52.550;13.408;2023-03-03T08:56:50;18.27;;;16.60;;
3036;SDS011;1528;52.550;13.408;2023-03-03T08:59:36;17.07;;;15.77;;
3036;SDS011;1528;52.550;13.408;2023-03-03T09:02:22;20.67;;;18.80;;
3036;SDS011;1528;52.550;13.408;2023-03-03T09:05:08;15.67;;;14.40;;
3036;SDS011;1528;52.550;13.408;2023-03-03T09:07:56;20.17;;;18.60;;
3036;SDS011;1528;52.550;13.408;2023-03-03T09:10:42;18.40;;;17.00;;
3036;SDS011;1528;52.550;13.408;2023-03-03T09:13:28;18.43;;;16.80;;
3036;SDS011;1528;52.550;13.408;2023-03-03T09:16:14;17.63;;;16.20;;
3036;SDS011;1528;52.550;13.408;2023-03-03T09:19:02;21.03;;;19.53;;
3036;SDS011;1528;52.550;13.408;2023-03-03T09:22:10;18.93;;;17.40;;
3036;SDS011;1528;52.550;13.408;2023-03-03T09:25:13;19.60;;;18.10;;
3036;SDS011;1528;52.550;13.408;2023-03-03T09:28:04;20.73;;;19.00;;
3036;SDS011;1528;52.550;13.408;2023-03-03T09:31:15;19.27;;;17.80;;
3036;SDS011;1528;52.550;13.408;2023-03-03T09:34:19;20.37;;;18.37;;
3036;SDS011;1528;52.550;13.408;2023-03-03T09:37:14;19.13;;;17.40;;
3036;SDS011;1528;52.550;13.408;2023-03-03T09:40:11;19.10;;;17.53;;
3036;SDS011;1528;52.550;13.408;2023-03-03T09:43:16;22.37;;;20.47;;
3036;SDS011;1528;52.550;13.408;2023-03-03T09:46:07;17.87;;;16.40;;
3036;SDS011;1528;52.550;13.408;2023-03-03T09:49:04;24.40;;;19.57;;
3036;SDS011;1528;52.550;13.408;2023-03-03T09:52:13;19.60;;;17.80;;
3036;SDS011;1528;52.550;13.408;2023-03-03T09:58:29;21.80;;;20.20;;
3036;SDS011;1528;52.550;13.408;2023-03-03T10:01:38;22.10;;;20.40;;
3036;SDS011;1528;52.550;13.408;2023-03-03T10:04:42;18.70;;;16.90;;
3036;SDS011;1528;52.550;13.408;2023-03-03T10:07:42;22.23;;;20.53;;
3036;SDS011;1528;52.550;13.408;2023-03-03T10:10:46;25.73;;;23.67;;
3036;SDS011;1528;52.550;13.408;2023-03-03T10:13:43;40.63;;;37.00;;
3036;SDS011;1528;52.550;13.408;2023-03-03T10:16:48;28.40;;;26.30;;
3036;SDS011;1528;52.550;13.408;2023-03-03T10:20:03;24.47;;;22.60;;
3036;SDS011;1528;52.550;13.408;2023-03-03T10:22:59;18.67;;;17.07;;
3036;SDS011;1528;52.550;13.408;2023-03-03T10:26:00;23.33;;;21.63;;
3036;SDS011;1528;52.550;13.408;2023-03-03T10:28:55;21.80;;;19.93;;
3036;SDS011;1528;52.550;13.408;2023-03-03T10:34:17;20.47;;;18.93;;
3036;SDS011;1528;52.550;13.408;2023-03-03T10:37:14;21.17;;;19.37;;
3036;SDS011;1528;52.550;13.408;2023-03-03T10:40:07;20.20;;;18.57;;
3036;SDS011;1528;52.550;13.408;2023-03-03T10:43:10;22.93;;;21.20;;
3036;SDS011;1528;52.550;13.408;2023-03-03T10:49:32;21.33;;;19.57;;
3036;SDS011;1528;52.550;13.408;2023-03-03T10:52:30;20.53;;;18.93;;
3036;SDS011;1528;52.550;13.408;2023-03-03T10:55:29;21.17;;;19.47;;
3036;SDS011;1528;52.550;13.408;2023-03-03T10:58:30;22.93;;;21.13;;
3036;SDS011;1528;52.550;13.408;2023-03-03T11:01:28;24.40;;;22.20;;
3036;SDS011;1528;52.550;13.408;2023-03-03T11:07:32;25.40;;;19.70;;
3036;SDS011;1528;52.550;13.408;2023-03-03T11:10:28;21.60;;;19.80;;
3036;SDS011;1528;52.550;13.408;2023-03-03T11:13:34;23.33;;;21.20;;
3036;SDS011;1528;52.550;13.408;2023-03-03T11:16:33;21.50;;;19.50;;
3036;SDS011;1528;52.550;13.408;2023-03-03T11:19:29;24.63;;;22.00;;
3036;SDS011;1528;52.550;13.408;2023-03-03T11:22:38;21.93;;;20.13;;
3036;SDS011;1528;52.550;13.408;2023-03-03T11:25:29;24.03;;;21.80;;
3036;SDS011;1528;52.550;13.408;2023-03-03T11:28:22;25.20;;;22.80;;
3036;SDS011;1528;52.550;13.408;2023-03-03T11:31:20;22.70;;;20.70;;
3036;SDS011;1528;52.550;13.408;2023-03-03T11:34:16;22.80;;;20.80;;
3036;SDS011;1528;52.550;13.408;2023-03-03T11:37:14;24.53;;;22.33;;
3036;SDS011;1528;52.550;13.408;2023-03-03T11:40:10;26.00;;;23.90;;
3036;SDS011;1528;52.550;13.408;2023-03-03T11:43:00;24.20;;;22.00;;
3036;SDS011;1528;52.550;13.408;2023-03-03T11:45:54;22.43;;;20.43;;
3036;SDS011;1528;52.550;13.408;2023-03-03T11:48:51;21.93;;;19.90;;
3036;SDS011;1528;52.550;13.408;2023-03-03T11:51:43;24.03;;;21.83;;
3036;SDS011;1528;52.550;13.408;2023-03-03T11:54:36;24.57;;;22.03;;
3036;SDS011;1528;52.550;13.408;2023-03-03T11:57:30;21.50;;;19.30;;
3036;SDS011;1528;52.550;13.408;2023-03-03T12:00:22;25.13;;;22.80;;
3036;SDS011;1528;52.550;13.408;2023-03-03T12:03:18;25.60;;;23.30;;
3036;SDS011;1528;52.550;13.408;2023-03-03T12:06:15;25.20;;;22.87;;
3036;SDS011;1528;52.550;13.408;2023-03-03T12:09:08;22.33;;;20.23;;
3036;SDS011;1528;52.550;13.408;2023-03-03T12:12:11;23.30;;;21.17;;
3036;SDS011;1528;52.550;13.408;2023-03-03T12:15:05;26.73;;;24.47;;
3036;SDS011;1528;52.550;13.408;2023-03-03T12:18:07;24.03;;;21.53;;
3036;SDS011;1528;52.550;13.408;2023-03-03T12:21:09;26.50;;;24.20;;
3036;SDS011;1528;52.550;13.408;2023-03-03T12:24:15;25.60;;;23.07;;
3036;SDS011;1528;52.550;13.408;2023-03-03T12:27:19;26.03;;;23.50;;
3036;SDS011;1528;52.550;13.408;2023-03-03T12:30:12;23.33;;;21.37;;
3036;SDS011;1528;52.550;13.408;2023-03-03T12:33:11;22.57;;;20.57;;
3036;SDS011;1528;52.550;13.408;2023-03-03T12:36:05;22.93;;;20.93;;
3036;SDS011;1528;52.550;13.408;2023-03-03T12:39:03;27.37;;;24.77;;
3036;SDS011;1528;52.550;13.408;2023-03-03T12:41:57;23.17;;;21.17;;
3036;SDS011;1528;52.550;13.408;2023-03-03T12:44:49;25.83;;;23.40;;
3036;SDS011;1528;52.550;13.408;2023-03-03T12:47:45;26.10;;;23.80;;
3036;SDS011;1528;52.550;13.408;2023-03-03T12:50:35;24.50;;;22.30;;
3036;SDS011;1528;52.550;13.408;2023-03-03T12:53:38;25.80;;;23.57;;
3036;SDS011;1528;52.550;13.408;2023-03-03T12:56:39;24.47;;;22.07;;
3036;SDS011;1528;52.550;13.408;2023-03-03T12:59:30;23.77;;;21.63;;
3036;SDS011;1528;52.550;13.408;2023-03-03T13:02:28;24.57;;;22.17;;
3036;SDS011;1528;52.550;13.408;2023-03-03T13:05:26;26.53;;;24.00;;
3036;SDS011;1528;52.550;13.408;2023-03-03T13:08:24;25.03;;;22.57;;
3036;SDS011;1528;52.550;13.408;2023-03-03T13:11:26;28.10;;;25.70;;
3036;SDS011;1528;52.550;13.408;2023-03-03T13:14:27;30.63;;;27.83;;
3036;SDS011;1528;52.550;13.408;2023-03-03T13:17:21;26.87;;;24.47;;
3036;SDS011;1528;52.550;13.408;2023-03-03T13:20:18;28.70;;;26.10;;
3036;SDS011;1528;52.550;13.408;2023-03-03T13:23:09;27.07;;;24.47;;
3036;SDS011;1528;52.550;13.408;2023-03-03T13:26:02;26.07;;;23.50;;
3036;SDS011;1528;52.550;13.408;2023-03-03T13:28:58;28.13;;;25.67;;
3036;SDS011;1528;52.550;13.408;2023-03-03T13:31:58;32.13;;;29.47;;
3036;SDS011;1528;52.550;13.408;2023-03-03T13:34:50;28.00;;;25.60;;
3036;SDS011;1528;52.550;13.408;2023-03-03T13:37:40;28.90;;;26.30;;
3036;SDS011;1528;52.550;13.408;2023-03-03T13:40:32;27.53;;;25.13;;
3036;SDS011;1528;52.550;13.408;2023-03-03T13:43:25;26.17;;;23.73;;
3036;SDS011;1528;52.550;13.408;2023-03-03T13:46:16;27.43;;;25.03;;
3036;SDS011;1528;52.550;13.408;2023-03-03T13:49:11;29.10;;;26.50;;
3036;SDS011;1528;52.550;13.408;2023-03-03T13:52:11;26.10;;;23.83;;
3036;SDS011;1528;52.550;13.408;2023-03-03T13:55:11;24.27;;;22.27;;
3036;SDS011;1528;52.550;13.408;2023-03-03T13:58:06;26.90;;;24.60;;
3036;SDS011;1528;52.550;13.408;2023-03-03T14:00:59;23.70;;;21.70;;
3036;SDS011;1528;52.550;13.408;2023-03-03T14:03:52;27.67;;;25.43;;
3036;SDS011;1528;52.550;13.408;2023-03-03T14:06:48;23.90;;;21.53;;
3036;SDS011;1528;52.550;13.408;2023-03-03T14:09:50;25.07;;;22.87;;
3036;SDS011;1528;52.550;13.408;2023-03-03T14:12:44;23.90;;;21.90;;
3036;SDS011;1528;52.550;13.408;2023-03-03T14:15:37;25.60;;;23.30;;
3036;SDS011;1528;52.550;13.408;2023-03-03T14:18:32;28.00;;;25.37;;
3036;SDS011;1528;52.550;13.408;2023-03-03T14:21:26;25.33;;;22.67;;
3036;SDS011;1528;52.550;13.408;2023-03-03T14:24:16;26.97;;;24.40;;
3036;SDS011;1528;52.550;13.408;2023-03-03T14:27:03;26.20;;;24.00;;
3036;SDS011;1528;52.550;13.408;2023-03-03T14:30:26;26.97;;;24.47;;
3036;SDS011;1528;52.550;13.408;2023-03-03T14:33:15;27.00;;;24.57;;
3036;SDS011;1528;52.550;13.408;2023-03-03T14:36:12;28.20;;;25.50;;
3036;SDS011;1528;52.550;13.408;2023-03-03T14:39:00;28.80;;;26.47;;
3036;SDS011;1528;52.550;13.408;2023-03-03T14:41:48;27.60;;;25.20;;
3036;SDS011;1528;52.550;13.408;2023-03-03T14:44:34;29.20;;;26.67;;
3036;SDS011;1528;52.550;13.408;2023-03-03T14:47:43;30.47;;;27.90;;
3036;SDS011;1528;52.550;13.408;2023-03-03T14:50:31;29.43;;;27.10;;
3036;SDS011;1528;52.550;13.408;2023-03-03T14:53:20;25.37;;;23.07;;
3036;SDS011;1528;52.550;13.408;2023-03-03T14:56:20;29.43;;;27.20;;
3036;SDS011;1528;52.550;13.408;2023-03-03T14:59:15;29.13;;;26.73;;
3036;SDS011;1528;52.550;13.408;2023-03-03T15:02:21;28.90;;;26.40;;
3036;SDS011;1528;52.550;13.408;2023-03-03T15:05:19;29.87;;;27.27;;
3036;SDS011;1528;52.550;13.408;2023-03-03T15:08:07;28.67;;;26.47;;
3036;SDS011;1528;52.550;13.408;2023-03-03T15:10:54;29.23;;;26.63;;
3036;SDS011;1528;52.550;13.408;2023-03-03T15:14:08;28.07;;;25.60;;
3036;SDS011;1528;52.550;13.408;2023-03-03T15:17:11;31.20;;;28.77;;
3036;SDS011;1528;52.550;13.408;2023-03-03T15:23:29;29.13;;;26.73;;
3036;SDS011;1528;52.550;13.408;2023-03-03T15:26:37;31.83;;;29.23;;
3036;SDS011;1528;52.550;13.408;2023-03-03T15:29:31;28.90;;;26.70;;
3036;SDS011;1528;52.550;13.408;2023-03-03T15:32:23;29.57;;;27.40;;
3036;SDS011;1528;52.550;13.408;2023-03-03T15:35:18;28.27;;;26.07;;
3036;SDS011;1528;52.550;13.408;2023-03-03T15:38:14;33.37;;;30.67;;
3036;SDS011;1528;52.550;13.408;2023-03-03T15:41:12;31.40;;;28.70;;
3036;SDS011;1528;52.550;13.408;2023-03-03T15:44:11;33.40;;;30.70;;
3036;SDS011;1528;52.550;13.408;2023-03-03T15:50:14;33.37;;;30.57;;
3036;SDS011;1528;52.550;13.408;2023-03-03T15:56:25;28.23;;;25.83;;
3036;SDS011;1528;52.550;13.408;2023-03-03T15:59:21;31.80;;;29.10;;
3036;SDS011;1528;52.550;13.408;2023-03-03T16:02:19;35.90;;;32.73;;
3036;SDS011;1528;52.550;13.408;2023-03-03T16:05:12;36.40;;;33.60;;
3036;SDS011;1528;52.550;13.408;2023-03-03T16:07:59;36.63;;;33.72;;
3036;SDS011;1528;52.550;13.408;2023-03-03T16:10:54;37.40;;;34.37;;
3036;SDS011;1528;52.550;13.408;2023-03-03T16:13:49;32.93;;;30.63;;
3036;SDS011;1528;52.550;13.408;2023-03-03T16:16:46;29.90;;;27.40;;
3036;SDS011;1528;52.550;13.408;2023-03-03T16:19:39;30.80;;;28.47;;
3036;SDS011;1528;52.550;13.408;2023-03-03T16:22:39;27.07;;;24.50;;
3036;SDS011;1528;52.550;13.408;2023-03-03T16:25:44;29.20;;;26.57;;
3036;SDS011;1528;52.550;13.408;2023-03-03T16:28:51;29.77;;;27.40;;
3036;SDS011;1528;52.550;13.408;2023-03-03T16:31:48;30.33;;;28.13;;
3036;SDS011;1528;52.550;13.408;2023-03-03T16:34:39;28.87;;;26.47;;
3036;SDS011;1528;52.550;13.408;2023-03-03T16:37:31;27.50;;;25.40;;
3036;SDS011;1528;52.550;13.408;2023-03-03T16:40:25;29.60;;;27.07;;
3036;SDS011;1528;52.550;13.408;2023-03-03T16:43:18;27.97;;;25.57;;
3036;SDS011;1528;52.550;13.408;2023-03-03T16:46:12;31.33;;;29.07;;
3036;SDS011;1528;52.550;13.408;2023-03-03T16:49:07;28.27;;;25.77;;
3036;SDS011;1528;52.550;13.408;2023-03-03T16:52:02;29.20;;;26.90;;
3036;SDS011;1528;52.550;13.408;2023-03-03T16:54:54;27.50;;;25.50;;
3036;SDS011;1528;52.550;13.408;2023-03-03T16:57:47;30.70;;;28.53;;
3036;SDS011;1528;52.550;13.408;2023-03-03T17:00:42;30.10;;;27.97;;
3036;SDS011;1528;52.550;13.408;2023-03-03T17:03:41;28.50;;;26.40;;
3036;SDS011;1528;52.550;13.408;2023-03-03T17:06:40;31.37;;;28.60;;
3036;SDS011;1528;52.550;13.408;2023-03-03T17:09:36;27.90;;;25.47;;
3036;SDS011;1528;52.550;13.408;2023-03-03T17:12:35;25.93;;;23.83;;
3036;SDS011;1528;52.550;13.408;2023-03-03T17:15:40;29.43;;;27.20;;
3036;SDS011;1528;52.550;13.408;2023-03-03T17:18:35;28.90;;;26.37;;
3036;SDS011;1528;52.550;13.408;2023-03-03T17:21:31;25.37;;;23.17;;